Flournoy, Louisiana
Current Conditions -  °F | °C
As of 4:56 AM on Wednesday 22 Oct 2014 (Local Time) from KSHV Reporting Station
Haze Haze  
Wind Chill: 58°   Ceiling: Unl
Heat Index: 58°   Visibility: 0.75mi
Dew Point: 56°   Wind: 0mph
Humidity: 93%   Direction: NA
Pressure: 30.08"   Gusts: NA
Location:  32.4646°N, 93.8137°W
Report Text: KSHV 220956Z 00000KT 3/4SM BR CLR 14/13 A3008 RMK AO2 SLP185 T01440133
Loading
Personal Weather Stations






























Interactive Weather Map
Tropical Storm Tracking
New forecast layout! Learn more

10-Day Weather Forecast

Advertisements
Track Severe Weather on mobile